createdAt,value
2022-09-02T00:02:00.214Z,2.13
2022-09-02T00:04:27.635Z,2.20
2022-09-02T00:06:54.797Z,2.10
2022-09-02T00:09:23.650Z,2.20
2022-09-02T00:11:52.714Z,2.20
2022-09-02T00:14:28.277Z,2.10
2022-09-02T00:16:55.343Z,1.90
2022-09-02T00:19:25.079Z,2.20
2022-09-02T00:21:53.889Z,2.10
2022-09-02T00:24:21.976Z,2.20
2022-09-02T00:26:49.313Z,2.20
2022-09-02T00:29:16.952Z,1.93
2022-09-02T00:31:45.288Z,2.40
2022-09-02T00:34:12.849Z,2.23
2022-09-02T00:36:40.090Z,2.30
2022-09-02T00:39:08.828Z,2.03
2022-09-02T00:41:38.203Z,2.00
2022-09-02T00:44:11.717Z,2.00
2022-09-02T00:46:39.596Z,2.00
2022-09-02T00:49:27.910Z,1.90
2022-09-02T00:52:06.863Z,2.10
2022-09-02T00:54:40.352Z,2.00
2022-09-02T00:57:15.822Z,1.90
2022-09-02T01:00:18.769Z,2.03
2022-09-02T01:02:52.531Z,1.97
2022-09-02T01:05:20.820Z,2.00
2022-09-02T01:07:48.014Z,2.00
2022-09-02T01:10:20.163Z,1.93
2022-09-02T01:12:47.402Z,1.80
2022-09-02T01:15:16.007Z,1.90
2022-09-02T01:17:47.840Z,2.00
2022-09-02T01:20:18.117Z,2.47
2022-09-02T01:22:45.923Z,1.90
2022-09-02T01:25:19.734Z,2.00
2022-09-02T01:27:48.187Z,2.10
2022-09-02T01:30:18.881Z,1.87
2022-09-02T01:32:46.061Z,2.00
2022-09-02T01:35:15.535Z,1.70
2022-09-02T01:37:54.723Z,1.97
2022-09-02T01:40:23.526Z,2.03
2022-09-02T01:42:54.863Z,1.80
2022-09-02T01:45:22.927Z,1.77
2022-09-02T01:47:50.141Z,1.80
2022-09-02T01:50:17.036Z,2.00
2022-09-02T01:52:44.084Z,1.70
2022-09-02T01:55:11.500Z,1.77
2022-09-02T01:57:38.632Z,1.80
2022-09-02T02:00:12.857Z,2.17
2022-09-02T02:02:40.296Z,1.83
2022-09-02T02:05:11.728Z,1.80
2022-09-02T02:07:39.902Z,1.90
2022-09-02T02:10:08.455Z,2.00
2022-09-02T02:12:36.388Z,1.80
2022-09-02T02:15:07.676Z,2.00
2022-09-02T02:17:34.823Z,1.80
2022-09-02T02:20:02.127Z,2.00
2022-09-02T02:22:29.173Z,1.80
2022-09-02T02:24:56.007Z,1.90
2022-09-02T02:27:23.192Z,2.10
2022-09-02T02:29:50.048Z,1.60
2022-09-02T02:32:18.521Z,1.80
2022-09-02T02:34:46.454Z,1.90
2022-09-02T02:37:14.270Z,1.90
2022-09-02T02:39:42.879Z,2.10
2022-09-02T02:42:13.375Z,1.77
2022-09-02T02:44:41.562Z,1.80
2022-09-02T02:47:09.473Z,1.83
2022-09-02T02:49:38.293Z,1.70
2022-09-02T02:52:05.534Z,1.83
2022-09-02T02:54:35.176Z,1.70
2022-09-02T02:57:04.309Z,1.70
2022-09-02T02:59:31.639Z,1.90
2022-09-02T03:01:58.753Z,1.70
2022-09-02T03:04:27.173Z,1.90
2022-09-02T03:06:54.201Z,1.90
2022-09-02T03:09:21.308Z,2.20
2022-09-02T03:11:48.604Z,2.00
2022-09-02T03:14:16.959Z,1.80
2022-09-02T03:16:44.696Z,2.13
2022-09-02T03:19:14.103Z,1.87
2022-09-02T03:21:42.402Z,2.07
2022-09-02T03:24:12.221Z,2.20
2022-09-02T03:26:41.366Z,2.00
2022-09-02T03:29:08.443Z,1.90
2022-09-02T03:31:35.502Z,1.87
2022-09-02T03:34:03.556Z,1.93
2022-09-02T03:36:33.701Z,1.70
2022-09-02T03:39:03.546Z,1.80
2022-09-02T03:41:30.912Z,1.93
2022-09-02T03:43:59.170Z,1.90
2022-09-02T03:46:28.575Z,1.60
2022-09-02T03:48:56.044Z,2.10
2022-09-02T03:51:24.274Z,2.03
2022-09-02T03:53:51.926Z,1.80
2022-09-02T03:56:20.025Z,2.07
2022-09-02T03:58:49.625Z,1.93
2022-09-02T04:01:23.950Z,1.90
2022-09-02T04:03:52.677Z,1.97
2022-09-02T04:06:23.609Z,2.30
2022-09-02T04:08:55.079Z,2.20
2022-09-02T04:11:23.986Z,2.00
2022-09-02T04:13:53.945Z,2.10
2022-09-02T04:16:31.489Z,2.00
2022-09-02T04:19:05.425Z,2.20
2022-09-02T04:21:34.962Z,1.90
2022-09-02T04:24:02.379Z,2.10
2022-09-02T04:26:29.360Z,2.40
2022-09-02T04:28:58.133Z,2.30
2022-09-02T04:31:28.775Z,2.00
2022-09-02T04:33:58.163Z,1.90
2022-09-02T04:36:26.376Z,2.53
2022-09-02T04:39:00.189Z,2.23
2022-09-02T04:41:31.104Z,2.10
2022-09-02T04:44:03.438Z,2.27
2022-09-02T04:46:35.879Z,2.30
2022-09-02T04:49:06.715Z,2.10
2022-09-02T04:51:34.195Z,2.10
2022-09-02T04:54:03.826Z,2.13
2022-09-02T04:56:32.466Z,2.40
2022-09-02T04:59:01.115Z,2.30
2022-09-02T05:01:32.477Z,2.30
2022-09-02T05:04:07.313Z,2.40
2022-09-02T05:06:43.343Z,2.40
2022-09-02T05:09:15.428Z,2.10
2022-09-02T05:11:42.581Z,2.20
2022-09-02T05:14:09.897Z,2.43
2022-09-02T05:16:40.619Z,2.17
2022-09-02T05:19:13.758Z,2.50
2022-09-02T05:21:47.061Z,2.60
2022-09-02T05:24:26.297Z,2.37
2022-09-02T05:26:54.638Z,2.53
2022-09-02T05:29:23.688Z,2.40
2022-09-02T05:31:51.324Z,2.50
2022-09-02T05:34:20.879Z,2.43
2022-09-02T05:36:48.573Z,2.13
2022-09-02T05:39:15.596Z,2.40
2022-09-02T05:41:42.683Z,2.30
2022-09-02T05:44:12.696Z,2.43
2022-09-02T05:46:39.899Z,2.27
2022-09-02T05:49:07.310Z,2.60
2022-09-02T05:51:52.924Z,2.30
2022-09-02T05:54:28.597Z,2.30
2022-09-02T05:56:57.922Z,2.40
2022-09-02T05:59:27.668Z,2.60
2022-09-02T06:01:57.132Z,2.40
2022-09-02T06:04:24.491Z,2.30
2022-09-02T06:06:52.208Z,2.13
2022-09-02T06:09:23.335Z,2.40
2022-09-02T06:11:52.085Z,2.60
2022-09-02T06:14:27.297Z,2.50
2022-09-02T06:16:56.722Z,2.30
2022-09-02T06:19:30.399Z,2.40
2022-09-02T06:21:59.842Z,2.50
2022-09-02T06:24:27.790Z,2.23
2022-09-02T06:26:56.086Z,2.00
2022-09-02T06:29:25.992Z,2.20
2022-09-02T06:31:54.622Z,2.20
2022-09-02T06:34:27.235Z,2.13
2022-09-02T06:36:57.579Z,2.27
2022-09-02T06:39:25.960Z,2.20
2022-09-02T06:41:55.952Z,2.30
2022-09-02T06:44:26.165Z,2.60
2022-09-02T06:46:56.636Z,2.40
2022-09-02T06:49:25.930Z,2.30
2022-09-02T06:51:56.288Z,2.63
2022-09-02T06:54:28.542Z,2.70
2022-09-02T06:57:05.970Z,2.47
2022-09-02T06:59:36.595Z,2.30
2022-09-02T07:02:03.957Z,2.63
2022-09-02T07:04:53.138Z,2.33
2022-09-02T07:07:22.823Z,2.40
2022-09-02T07:09:59.062Z,2.40
2022-09-02T07:12:27.334Z,2.53
2022-09-02T07:15:02.017Z,2.10
2022-09-02T07:17:34.501Z,2.60
2022-09-02T07:20:06.044Z,2.07
2022-09-02T07:22:39.701Z,2.30
2022-09-02T07:25:09.680Z,2.30
2022-09-02T07:27:37.541Z,2.10
2022-09-02T07:30:06.748Z,1.90
2022-09-02T07:32:38.593Z,2.30
2022-09-02T07:35:07.714Z,2.40
2022-09-02T07:37:35.828Z,2.30
2022-09-02T07:40:07.623Z,2.20
2022-09-02T07:42:34.854Z,2.17
2022-09-02T07:45:01.953Z,2.30
2022-09-02T07:47:28.915Z,2.33
2022-09-02T07:52:43.333Z,1.90
2022-09-02T07:55:14.755Z,2.00
2022-09-02T07:57:43.163Z,1.90
2022-09-02T08:00:12.331Z,1.97
2022-09-02T08:02:42.748Z,1.83
2022-09-02T08:05:13.723Z,1.90
2022-09-02T08:07:40.834Z,2.17
2022-09-02T08:10:10.998Z,1.80
2022-09-02T08:12:39.776Z,1.97
2022-09-02T08:15:07.962Z,1.90
2022-09-02T08:17:34.913Z,2.10
2022-09-02T08:20:03.057Z,1.50
2022-09-02T08:22:36.803Z,2.00
2022-09-02T08:25:04.431Z,2.27
2022-09-02T08:27:32.255Z,1.80
2022-09-02T08:29:59.115Z,1.80
2022-09-02T08:32:25.918Z,1.90
2022-09-02T08:34:52.699Z,1.70
2022-09-02T08:37:19.565Z,1.80
2022-09-02T08:39:48.277Z,1.50
2022-09-02T08:42:23.221Z,1.67
2022-09-02T08:44:57.168Z,1.63
2022-09-02T08:47:29.757Z,1.57
2022-09-02T08:50:03.312Z,1.37
2022-09-02T08:52:33.314Z,1.40
2022-09-02T08:55:02.506Z,1.77
2022-09-02T08:57:31.633Z,1.40
2022-09-02T09:00:01.398Z,1.40
2022-09-02T09:02:47.275Z,1.60
2022-09-02T09:05:47.790Z,1.70
2022-09-02T09:09:06.767Z,1.40
2022-09-02T09:11:41.043Z,1.60
2022-09-02T09:14:28.859Z,1.50
2022-09-02T09:17:14.927Z,1.53
2022-09-02T09:19:58.525Z,1.40
2022-09-02T09:22:31.426Z,1.40
2022-09-02T09:24:58.714Z,1.37
2022-09-02T09:27:25.728Z,1.40
2022-09-02T09:29:53.300Z,1.60
2022-09-02T09:32:34.215Z,1.50
2022-09-02T09:35:03.249Z,1.40
2022-09-02T09:37:35.711Z,1.50
2022-09-02T09:40:28.123Z,1.43
2022-09-02T09:43:14.163Z,1.50
2022-09-02T09:45:46.634Z,1.37
2022-09-02T09:48:29.825Z,1.40
2022-09-02T09:50:56.618Z,1.30
2022-09-02T09:53:26.008Z,1.40
2022-09-02T09:55:58.614Z,1.40
2022-09-02T09:58:49.690Z,1.40
2022-09-02T10:01:28.184Z,2.00
2022-09-02T10:04:42.186Z,1.57
2022-09-02T10:07:13.382Z,1.50
2022-09-02T10:09:40.561Z,1.67
2022-09-02T10:12:12.216Z,1.60
2022-09-02T10:14:48.336Z,1.50
2022-09-02T10:17:44.161Z,1.33
2022-09-02T10:20:11.012Z,1.20
2022-09-02T10:23:00.706Z,1.30
2022-09-02T10:25:47.394Z,1.33
2022-09-02T10:28:45.996Z,1.60
2022-09-02T10:31:31.648Z,1.40
2022-09-02T10:34:28.814Z,1.20
2022-09-02T10:37:14.635Z,1.47
2022-09-02T10:40:06.158Z,1.50
2022-09-02T10:43:00.647Z,1.90
2022-09-02T10:45:54.029Z,1.60
2022-09-02T10:48:35.940Z,1.20
2022-09-02T10:51:24.100Z,1.40
2022-09-02T10:54:09.990Z,1.20
2022-09-02T10:57:02.021Z,1.40
2022-09-02T10:59:54.893Z,1.37
2022-09-02T11:02:35.279Z,1.50
2022-09-02T11:05:08.199Z,1.40
2022-09-02T11:07:47.653Z,1.30
2022-09-02T11:10:32.335Z,1.40
2022-09-02T11:13:06.699Z,1.50
2022-09-02T11:15:42.443Z,1.40
2022-09-02T11:18:36.893Z,1.30
2022-09-02T11:21:36.406Z,1.53
2022-09-02T11:24:31.873Z,1.30
2022-09-02T11:27:25.891Z,1.47
2022-09-02T11:30:09.710Z,1.33
2022-09-02T11:33:11.184Z,1.30
2022-09-02T11:35:39.809Z,1.40
2022-09-02T11:38:16.729Z,1.40
2022-09-02T11:41:32.907Z,1.40
2022-09-02T11:43:43.217Z,1.20
2022-09-02T11:46:57.682Z,1.40
2022-09-02T11:49:51.032Z,1.20
2022-09-02T11:52:31.186Z,1.53
2022-09-02T11:55:15.772Z,1.60
2022-09-02T11:57:52.369Z,1.57
2022-09-02T12:00:36.716Z,1.80
2022-09-02T12:03:16.708Z,1.60
2022-09-02T12:06:06.196Z,1.40
2022-09-02T12:08:34.944Z,1.50
2022-09-02T12:11:06.010Z,1.50
2022-09-02T12:13:35.682Z,1.40
2022-09-02T12:16:19.335Z,1.40
2022-09-02T12:19:10.704Z,1.50
2022-09-02T12:22:15.720Z,1.40
2022-09-02T12:24:51.527Z,1.60
2022-09-02T12:27:32.631Z,1.40
2022-09-02T12:30:00.561Z,1.60
2022-09-02T12:32:46.095Z,1.50
2022-09-02T12:35:32.734Z,1.50
2022-09-02T12:38:36.406Z,1.50
2022-09-02T12:41:07.797Z,1.47
2022-09-02T12:43:38.404Z,1.50
2022-09-02T12:46:38.516Z,1.87
2022-09-02T12:49:37.535Z,1.93
2022-09-02T12:52:36.204Z,1.37
2022-09-02T12:55:09.417Z,1.63
2022-09-02T12:57:41.936Z,1.50
2022-09-02T13:00:28.316Z,1.47
2022-09-02T13:03:09.513Z,1.87
2022-09-02T13:05:59.270Z,1.60
2022-09-02T13:08:50.046Z,1.50
2022-09-02T13:11:16.871Z,1.60
2022-09-02T13:14:18.013Z,1.63
2022-09-02T13:17:25.724Z,1.60
2022-09-02T13:20:12.881Z,1.50
2022-09-02T13:22:45.398Z,1.43
2022-09-02T13:25:21.566Z,1.40
2022-09-02T13:28:17.205Z,2.00
2022-09-02T13:30:53.172Z,1.50
2022-09-02T13:33:20.220Z,1.43
2022-09-02T13:35:53.152Z,1.33
2022-09-02T13:38:24.564Z,1.57
2022-09-02T13:40:51.616Z,1.60
2022-09-02T13:43:24.106Z,1.60
2022-09-02T13:45:52.490Z,1.60
2022-09-02T13:48:23.500Z,1.50
2022-09-02T13:50:57.095Z,1.47
2022-09-02T13:53:58.915Z,1.70
2022-09-02T13:56:30.979Z,1.40
2022-09-02T13:58:58.060Z,1.40
2022-09-02T14:01:32.202Z,1.40
2022-09-02T14:06:38.459Z,1.50
2022-09-02T14:09:11.197Z,1.30
2022-09-02T14:11:45.818Z,1.43
2022-09-02T14:14:24.339Z,1.60
2022-09-02T14:16:52.598Z,1.23
2022-09-02T14:19:22.246Z,1.10
2022-09-02T14:21:57.640Z,1.40
2022-09-02T14:24:29.946Z,1.50
2022-09-02T14:26:58.881Z,1.40
2022-09-02T14:29:28.338Z,1.50
2022-09-02T14:32:10.225Z,1.37
2022-09-02T14:34:42.836Z,1.40
2022-09-02T14:37:20.117Z,1.30
2022-09-02T14:39:53.027Z,1.33
2022-09-02T14:42:20.123Z,1.40
2022-09-02T14:44:47.628Z,1.33
2022-09-02T14:47:16.744Z,1.33
2022-09-02T14:49:53.446Z,1.30
2022-09-02T14:52:30.668Z,1.43
2022-09-02T14:54:58.350Z,1.40
2022-09-02T14:57:32.608Z,1.03
2022-09-02T15:00:10.071Z,1.40
2022-09-02T15:02:40.574Z,1.20
2022-09-02T15:05:10.262Z,1.40
2022-09-02T15:07:37.247Z,1.20
2022-09-02T15:10:05.362Z,1.20
2022-09-02T15:12:35.228Z,1.10
2022-09-02T15:15:02.114Z,1.33
2022-09-02T15:17:30.601Z,1.30
2022-09-02T15:19:57.744Z,1.27
2022-09-02T15:22:25.197Z,1.33
2022-09-02T15:24:52.337Z,1.37
2022-09-02T15:27:21.890Z,1.40
2022-09-02T15:29:49.341Z,1.30
2022-09-02T15:32:16.514Z,1.30
2022-09-02T15:34:43.492Z,1.30
2022-09-02T15:37:12.977Z,1.10
2022-09-02T15:39:40.685Z,1.17
2022-09-02T15:42:07.709Z,1.40
2022-09-02T15:44:34.538Z,1.40
2022-09-02T15:47:01.856Z,1.50
2022-09-02T15:49:28.946Z,1.30
2022-09-02T15:51:55.801Z,1.20
2022-09-02T15:54:24.091Z,1.17
2022-09-02T15:56:55.766Z,1.20
2022-09-02T15:59:23.346Z,1.17
2022-09-02T16:01:52.396Z,1.10
2022-09-02T16:04:19.321Z,1.33
2022-09-02T16:06:52.234Z,1.27
2022-09-02T16:09:20.190Z,1.40
2022-09-02T16:11:49.918Z,1.40
2022-09-02T16:14:20.378Z,1.20
2022-09-02T16:16:49.273Z,1.30
2022-09-02T16:19:18.802Z,1.30
2022-09-02T16:21:45.693Z,1.10
2022-09-02T16:24:12.534Z,1.23
2022-09-02T16:26:41.595Z,1.10
2022-09-02T16:29:11.268Z,1.40
2022-09-02T16:31:39.894Z,1.20
2022-09-02T16:34:17.451Z,1.10
2022-09-02T16:36:46.481Z,1.63
2022-09-02T16:39:14.351Z,1.20
2022-09-02T16:41:47.122Z,1.10
2022-09-02T16:44:19.319Z,1.20
2022-09-02T16:46:47.973Z,1.20
2022-09-02T16:49:19.563Z,1.30
2022-09-02T16:51:57.846Z,1.20
2022-09-02T16:54:31.419Z,1.20
2022-09-02T16:57:00.354Z,1.20
2022-09-02T16:59:27.619Z,1.40
2022-09-02T17:01:54.495Z,1.40
2022-09-02T17:04:21.445Z,1.20
2022-09-02T17:06:48.677Z,1.20
2022-09-02T17:09:16.367Z,1.37
2022-09-02T17:11:45.217Z,1.30
2022-09-02T17:14:17.270Z,1.30
2022-09-02T17:16:46.937Z,1.37
2022-09-02T17:19:20.860Z,1.07
2022-09-02T17:21:53.428Z,1.10
2022-09-02T17:24:23.680Z,1.30
2022-09-02T17:26:52.636Z,1.13
2022-09-02T17:32:08.226Z,1.10
2022-09-02T17:34:35.105Z,1.17
2022-09-02T17:37:02.209Z,1.13
2022-09-02T17:39:29.189Z,1.20
2022-09-02T17:41:57.538Z,1.20
2022-09-02T17:44:34.884Z,1.30
2022-09-02T17:47:16.803Z,1.20
2022-09-02T17:49:46.503Z,1.40
2022-09-02T17:52:19.049Z,1.90
2022-09-02T17:54:48.721Z,1.37
2022-09-02T17:57:37.043Z,1.60
2022-09-02T18:00:12.987Z,1.60
2022-09-02T18:03:13.078Z,1.43
2022-09-02T18:06:01.622Z,1.40
2022-09-02T18:08:55.148Z,1.83
2022-09-02T18:11:23.011Z,1.87
2022-09-02T18:14:22.170Z,1.70
2022-09-02T18:16:58.666Z,1.60
2022-09-02T18:19:43.924Z,1.47
2022-09-02T18:22:28.781Z,1.50
2022-09-02T18:25:13.699Z,1.90
2022-09-02T18:27:52.422Z,1.57
2022-09-02T18:30:39.926Z,1.40
2022-09-02T18:33:27.675Z,1.27
2022-09-02T18:36:26.220Z,1.33
2022-09-02T18:39:27.811Z,1.83
2022-09-02T18:42:10.038Z,1.50
2022-09-02T18:44:45.799Z,1.50
2022-09-02T18:47:25.309Z,1.53
2022-09-02T18:49:55.570Z,1.40
2022-09-02T18:52:29.582Z,1.43
2022-09-02T18:54:59.242Z,1.70
2022-09-02T18:57:33.566Z,1.77
2022-09-02T19:00:12.366Z,1.77
2022-09-02T19:03:03.551Z,1.70
2022-09-02T19:05:32.543Z,1.57
2022-09-02T19:08:24.120Z,1.47
2022-09-02T19:11:02.500Z,1.40
2022-09-02T19:13:34.228Z,1.73
2022-09-02T19:16:04.238Z,1.50
2022-09-02T19:18:31.800Z,1.43
2022-09-02T19:20:59.204Z,1.40
2022-09-02T19:23:27.833Z,1.37
2022-09-02T19:25:54.685Z,1.40
2022-09-02T19:28:22.556Z,1.60
2022-09-02T19:30:53.321Z,1.37
2022-09-02T19:33:20.194Z,1.43
2022-09-02T19:35:49.631Z,1.63
2022-09-02T19:38:17.648Z,1.60
2022-09-02T19:40:49.268Z,1.20
2022-09-02T19:43:16.704Z,1.30
2022-09-02T19:45:44.047Z,1.30
2022-09-02T19:48:11.578Z,1.63
2022-09-02T19:50:43.567Z,1.70
2022-09-02T19:53:16.045Z,1.80
2022-09-02T19:55:43.057Z,1.50
2022-09-02T19:58:10.053Z,1.53
2022-09-02T20:00:39.891Z,1.60
2022-09-02T20:03:06.924Z,1.47
2022-09-02T20:05:34.926Z,1.50
2022-09-02T20:08:01.928Z,1.40
2022-09-02T20:10:29.846Z,1.50
2022-09-02T20:12:58.744Z,1.83
2022-09-02T20:15:25.594Z,1.90
2022-09-02T20:17:52.603Z,1.90
2022-09-02T20:20:22.645Z,1.90
2022-09-02T20:22:55.209Z,1.80
2022-09-02T20:25:28.803Z,1.47
2022-09-02T20:28:28.840Z,1.57
2022-09-02T20:31:19.050Z,1.40
2022-09-02T20:34:13.944Z,1.53
2022-09-02T20:37:25.131Z,1.80
2022-09-02T20:40:05.646Z,1.70
2022-09-02T20:42:57.322Z,1.40
2022-09-02T20:45:27.629Z,1.50
2022-09-02T20:48:10.400Z,1.50
2022-09-02T20:50:49.039Z,1.60
2022-09-02T20:53:32.554Z,1.60
2022-09-02T20:56:21.898Z,1.77
2022-09-02T20:58:51.830Z,1.40
2022-09-02T21:01:31.406Z,1.40
2022-09-02T21:04:17.147Z,1.80
2022-09-02T21:07:32.675Z,1.53
2022-09-02T21:10:16.774Z,1.50
2022-09-02T21:12:53.100Z,1.60
2022-09-02T21:15:28.878Z,1.50
2022-09-02T21:18:02.130Z,1.50
2022-09-02T21:20:49.636Z,1.50
2022-09-02T21:23:28.405Z,1.40
2022-09-02T21:25:58.281Z,1.63
2022-09-02T21:28:48.096Z,1.50
2022-09-02T21:31:25.175Z,1.60
2022-09-02T21:33:54.873Z,1.60
2022-09-02T21:36:29.757Z,1.50
2022-09-02T21:39:03.256Z,1.70
2022-09-02T21:41:41.863Z,1.30
2022-09-02T21:44:39.962Z,1.57
2022-09-02T21:47:25.949Z,1.50
2022-09-02T21:49:56.611Z,1.40
2022-09-02T21:52:33.573Z,1.60
2022-09-02T21:55:09.420Z,1.73
2022-09-02T21:57:53.761Z,1.60
2022-09-02T22:00:21.783Z,1.60
2022-09-02T22:03:04.225Z,1.40
2022-09-02T22:05:38.905Z,1.40
2022-09-02T22:08:16.760Z,1.50
2022-09-02T22:10:49.537Z,1.80
2022-09-02T22:13:16.727Z,1.50
2022-09-02T22:16:21.802Z,1.60
2022-09-02T22:19:03.606Z,1.67
2022-09-02T22:21:51.088Z,1.63
2022-09-02T22:24:27.414Z,1.60
2022-09-02T22:27:02.726Z,2.00
2022-09-02T22:29:53.567Z,1.70
2022-09-02T22:32:24.125Z,1.77
2022-09-02T22:34:58.095Z,2.03
2022-09-02T22:37:36.909Z,2.00
2022-09-02T22:40:07.791Z,1.90
2022-09-02T22:42:36.548Z,1.60
2022-09-02T22:45:45.090Z,1.67
2022-09-02T22:48:35.769Z,1.50
2022-09-02T22:51:45.445Z,1.60
2022-09-02T22:54:12.418Z,1.60
2022-09-02T22:56:57.853Z,1.50
2022-09-02T22:59:43.287Z,1.53
2022-09-02T23:02:31.363Z,1.87
2022-09-02T23:05:07.027Z,1.77
2022-09-02T23:07:33.956Z,1.73
2022-09-02T23:10:02.709Z,1.60
2022-09-02T23:12:53.253Z,1.90
2022-09-02T23:15:29.906Z,1.73
2022-09-02T23:18:03.405Z,1.60
2022-09-02T23:20:39.469Z,1.87
2022-09-02T23:23:22.754Z,1.73
2022-09-02T23:25:52.571Z,1.50
2022-09-02T23:28:33.944Z,1.70
2022-09-02T23:31:31.882Z,1.70
2022-09-02T23:34:10.624Z,1.60
2022-09-02T23:36:57.633Z,1.60
2022-09-02T23:39:51.846Z,1.73
2022-09-02T23:42:18.951Z,1.90
2022-09-02T23:44:46.133Z,1.70
2022-09-02T23:47:38.240Z,1.90
2022-09-02T23:50:26.809Z,1.80
2022-09-02T23:53:06.684Z,1.70
2022-09-02T23:56:05.943Z,1.50
2022-09-02T23:59:08.068Z,1.60
